Time;durP1;ratioP1;P1;durP2;ratioP2;P2;SDS_P1;SDS_P2;PMS_P1;PMS_P2;Temp;Humidity;BMP_temperature;BMP_pressure;BME280_temperature;BME280_humidity;BME280_pressure;Samples;Min_cycle;Max_cycle;Signal;HPM_P1;HPM_P2
2022/02/14 00:02:04;;;;;;;4.45;1.63;;;11.40;75.60;;;;;;5071612;28;20567;-92
2022/02/14 00:04:30;;;;;;;3.00;1.27;;;11.40;76.10;;;;;;5087732;28;20024;-93
2022/02/14 00:06:56;;;;;;;4.72;1.83;;;11.30;75.50;;;;;;5089078;28;20028;-93
2022/02/14 00:09:22;;;;;;;4.75;1.60;;;11.40;75.60;;;;;;5076407;28;20021;-91
2022/02/14 00:11:48;;;;;;;2.90;1.55;;;11.30;75.50;;;;;;5052032;28;20043;-91
2022/02/14 00:14:14;;;;;;;4.85;1.65;;;11.30;76.00;;;;;;5050575;28;20274;-91
2022/02/14 00:16:40;;;;;;;3.40;2.33;;;11.30;75.50;;;;;;5064945;28;20304;-91
2022/02/14 00:19:06;;;;;;;4.88;1.48;;;11.30;75.60;;;;;;5079905;28;20109;-91
2022/02/14 00:21:32;;;;;;;4.15;1.85;;;11.20;75.40;;;;;;5070617;28;20499;-90
2022/02/14 00:23:59;;;;;;;4.03;1.52;;;11.20;75.40;;;;;;5088540;28;20086;-91
2022/02/14 00:26:25;;;;;;;4.63;1.83;;;11.20;75.40;;;;;;5088691;28;20403;-90
2022/02/14 00:28:51;;;;;;;5.93;1.58;;;11.20;75.40;;;;;;5088458;28;20496;-91
2022/02/14 00:31:17;;;;;;;4.13;1.58;;;11.10;75.20;;;;;;5087281;28;20178;-90
2022/02/14 00:33:43;;;;;;;5.55;2.35;;;11.10;75.20;;;;;;5092708;28;20047;-92
2022/02/14 00:36:10;;;;;;;5.10;1.95;;;11.10;75.20;;;;;;5093174;28;20463;-92
2022/02/14 00:38:36;;;;;;;2.75;1.70;;;11.10;75.20;;;;;;5092444;28;20490;-91
2022/02/14 00:41:03;;;;;;;4.13;1.70;;;11.10;75.20;;;;;;5093780;28;20032;-93
2022/02/14 00:43:29;;;;;;;5.75;1.75;;;11.10;75.20;;;;;;5075060;28;20031;-90
2022/02/14 00:45:55;;;;;;;4.40;1.88;;;11.00;75.00;;;;;;5095297;28;20111;-91
2022/02/14 00:48:21;;;;;;;3.08;1.50;;;11.00;75.00;;;;;;5093802;28;20020;-89
2022/02/14 00:50:47;;;;;;;5.25;2.00;;;11.00;75.00;;;;;;5093647;28;20490;-89
2022/02/14 00:53:14;;;;;;;3.72;1.55;;;11.00;75.00;;;;;;5077564;28;20531;-91
2022/02/14 00:55:40;;;;;;;2.17;1.63;;;10.90;74.90;;;;;;5093837;28;20159;-88
2022/02/14 00:58:06;;;;;;;4.35;1.70;;;10.90;74.90;;;;;;5114059;28;20463;-93
2022/02/14 01:00:33;;;;;;;2.58;1.52;;;10.90;74.90;;;;;;5114364;28;20032;-92
2022/02/14 01:03:02;;;;;;;3.90;1.77;;;10.90;74.90;;;;;;5096548;28;20084;-92
2022/02/14 01:05:28;;;;;;;3.08;1.48;;;10.80;74.80;;;;;;5114710;28;20024;-94
2022/02/14 01:07:54;;;;;;;2.13;1.45;;;10.80;74.80;;;;;;5114767;28;20027;-93
2022/02/14 01:10:21;;;;;;;2.92;1.58;;;10.80;74.80;;;;;;5042516;28;20069;-92
2022/02/14 01:12:47;;;;;;;3.67;1.85;;;10.80;74.80;;;;;;5093564;28;20058;-92
2022/02/14 01:15:13;;;;;;;4.25;1.58;;;10.80;74.80;;;;;;5092492;28;20056;-92
2022/02/14 01:17:39;;;;;;;3.42;1.70;;;10.80;74.80;;;;;;5092911;28;20028;-92
2022/02/14 01:20:08;;;;;;;3.00;1.60;;;10.80;74.80;;;;;;5112390;28;20034;-94
2022/02/14 01:22:35;;;;;;;1.88;1.63;;;10.80;74.80;;;;;;5114040;28;20062;-93
2022/02/14 01:25:02;;;;;;;3.47;2.08;;;10.70;74.60;;;;;;5113538;28;20031;-94
2022/02/14 01:27:28;;;;;;;6.15;1.98;;;10.80;74.80;;;;;;5094980;28;20071;-93
2022/02/14 01:29:55;;;;;;;5.07;1.65;;;10.70;74.60;;;;;;5096701;28;20058;-93
2022/02/14 01:32:22;;;;;;;1.85;1.52;;;10.70;74.60;;;;;;5079841;28;20031;-90
2022/02/14 01:34:50;;;;;;;4.03;1.85;;;10.70;74.60;;;;;;5078797;28;20031;-92
2022/02/14 01:37:16;;;;;;;3.00;1.60;;;10.70;74.50;;;;;;5095631;28;20229;-94
2022/02/14 01:39:43;;;;;;;4.00;2.15;;;10.70;74.50;;;;;;5113114;28;20103;-94
2022/02/14 01:42:09;;;;;;;3.78;1.50;;;10.70;74.50;;;;;;5094726;28;20514;-93
2022/02/14 01:44:39;;;;;;;2.72;1.75;;;10.70;74.50;;;;;;5077739;28;20122;-91
2022/02/14 01:47:13;;;;;;;4.20;1.77;;;10.70;74.50;;;;;;5114405;28;20097;-92
2022/02/14 01:53:29;;;;;;;4.82;2.05;;;10.60;74.30;;;;;;5114753;28;20032;-94
2022/02/14 01:55:56;;;;;;;5.13;2.10;;;10.60;74.20;;;;;;5079281;28;20031;-92
2022/02/14 01:58:23;;;;;;;2.95;1.40;;;10.60;74.20;;;;;;5109332;28;20020;-93
2022/02/14 02:00:49;;;;;;;3.97;1.80;;;10.60;74.30;;;;;;5075604;28;20122;-94
2022/02/14 02:03:16;;;;;;;3.60;1.98;;;10.60;74.30;;;;;;5074959;28;20059;-93
2022/02/14 02:05:45;;;;;;;2.88;1.77;;;10.60;74.20;;;;;;5092254;28;20062;-94
2022/02/14 02:08:13;;;;;;;5.10;1.70;;;10.50;74.10;;;;;;5077476;28;20449;-93
2022/02/14 02:10:40;;;;;;;3.95;1.40;;;10.60;74.20;;;;;;5094315;28;20092;-93
2022/02/14 02:13:06;;;;;;;3.58;1.70;;;10.50;74.10;;;;;;5095714;28;20024;-93
2022/02/14 02:15:34;;;;;;;2.58;1.60;;;10.50;74.00;;;;;;5095052;28;20024;-94
2022/02/14 02:18:00;;;;;;;3.15;1.95;;;10.50;74.10;;;;;;5094607;28;20028;-94
2022/02/14 02:20:26;;;;;;;4.78;2.40;;;10.50;74.00;;;;;;5112153;28;20030;-91
2022/02/14 02:22:52;;;;;;;3.35;1.75;;;10.50;74.00;;;;;;5113231;28;20051;-94
2022/02/14 02:25:19;;;;;;;2.42;1.60;;;10.50;74.00;;;;;;5077338;28;20479;-93
2022/02/14 02:27:46;;;;;;;2.83;1.60;;;10.40;73.80;;;;;;5094126;28;20699;-95
2022/02/14 02:30:17;;;;;;;3.42;1.77;;;10.40;73.80;;;;;;5093847;28;20045;-91
2022/02/14 02:32:44;;;;;;;3.80;1.50;;;10.40;73.80;;;;;;5085795;28;20073;-95
2022/02/14 02:35:11;;;;;;;3.28;1.63;;;10.40;73.80;;;;;;5115844;28;20040;-94
2022/02/14 02:37:37;;;;;;;2.85;1.52;;;10.40;73.80;;;;;;5113565;28;20111;-92
2022/02/14 02:40:05;;;;;;;2.72;1.50;;;10.40;73.80;;;;;;5093422;28;20027;-90
2022/02/14 02:42:31;;;;;;;3.92;1.58;;;10.30;73.60;;;;;;5092876;28;20035;-92
2022/02/14 02:44:57;;;;;;;3.35;1.60;;;10.40;73.80;;;;;;5109771;28;20028;-88
2022/02/14 02:47:26;;;;;;;2.15;1.70;;;10.40;73.80;;;;;;5110920;28;20052;-88
2022/02/14 02:49:53;;;;;;;3.65;1.75;;;10.30;73.60;;;;;;5093867;28;20527;-88
2022/02/14 02:52:21;;;;;;;2.28;1.42;;;10.30;73.60;;;;;;5112039;28;20123;-87
2022/02/14 02:54:48;;;;;;;2.65;1.23;;;10.30;73.60;;;;;;5092661;28;20036;-88
2022/02/14 02:57:14;;;;;;;1.50;1.40;;;10.30;73.60;;;;;;5112239;28;20482;-86
2022/02/14 02:59:43;;;;;;;2.65;1.80;;;10.30;73.60;;;;;;5096839;28;20081;-92
2022/02/14 03:02:09;;;;;;;2.83;1.80;;;10.20;73.40;;;;;;5095740;28;20505;-94
2022/02/14 03:04:36;;;;;;;3.30;1.92;;;10.20;73.40;;;;;;5096862;28;20035;-92
2022/02/14 03:07:03;;;;;;;3.10;1.70;;;10.20;73.40;;;;;;5112830;28;20122;-88
2022/02/14 03:09:29;;;;;;;4.07;1.65;;;10.20;73.40;;;;;;5112524;28;20083;-90
2022/02/14 03:11:57;;;;;;;3.58;1.25;;;10.20;73.40;;;;;;5094447;28;20028;-89
2022/02/14 03:14:23;;;;;;;5.10;1.17;;;10.10;73.30;;;;;;5093620;28;20039;-87
2022/02/14 03:16:50;;;;;;;3.20;1.30;;;10.20;73.50;;;;;;5093256;28;20030;-87
2022/02/14 03:19:16;;;;;;;4.75;1.95;;;10.10;73.30;;;;;;5076483;28;20482;-86
2022/02/14 03:21:42;;;;;;;4.15;1.75;;;10.10;73.30;;;;;;5094281;28;20030;-87
2022/02/14 03:24:08;;;;;;;5.30;1.63;;;10.10;73.20;;;;;;5093985;28;20027;-94
2022/02/14 03:26:34;;;;;;;3.47;1.48;;;10.10;73.20;;;;;;5115034;28;20161;-94
2022/02/14 03:29:01;;;;;;;3.47;1.50;;;10.10;73.20;;;;;;5115588;28;20089;-90
2022/02/14 03:31:27;;;;;;;3.83;1.65;;;10.10;73.20;;;;;;5093189;28;20028;-86
2022/02/14 03:33:54;;;;;;;2.95;1.35;;;10.00;73.00;;;;;;5111931;28;20032;-87
2022/02/14 03:36:21;;;;;;;4.15;1.35;;;10.00;73.00;;;;;;5076974;28;20122;-86
2022/02/14 03:38:48;;;;;;;2.10;1.00;;;10.00;73.00;;;;;;5093183;28;20047;-86
2022/02/14 03:41:15;;;;;;;4.13;1.20;;;10.00;73.00;;;;;;5076635;28;20031;-87
2022/02/14 03:43:41;;;;;;;2.30;1.58;;;10.00;73.00;;;;;;5093347;28;20027;-88
2022/02/14 03:46:07;;;;;;;2.63;1.33;;;9.90;72.90;;;;;;5111638;28;20066;-87
2022/02/14 03:48:34;;;;;;;3.50;1.80;;;10.00;73.10;;;;;;5093587;28;20035;-88
2022/02/14 03:51:00;;;;;;;4.57;1.90;;;9.90;73.00;;;;;;5094020;28;20035;-91
2022/02/14 03:53:26;;;;;;;3.85;1.23;;;9.90;73.00;;;;;;5113796;28;20147;-89
2022/02/14 03:55:53;;;;;;;3.50;2.50;;;9.90;72.90;;;;;;5112626;28;20047;-92
2022/02/14 03:58:19;;;;;;;3.20;1.38;;;9.90;73.00;;;;;;5113181;28;20020;-90
2022/02/14 04:00:45;;;;;;;2.50;1.08;;;9.90;73.00;;;;;;5110318;28;20052;-93
2022/02/14 04:03:11;;;;;;;4.70;1.85;;;9.90;72.90;;;;;;5114315;28;20391;-94
2022/02/14 04:05:37;;;;;;;2.45;1.13;;;9.90;73.40;;;;;;5097524;28;20032;-95
2022/02/14 04:08:04;;;;;;;4.53;2.10;;;9.90;72.90;;;;;;5120180;28;20019;-94
2022/02/14 04:10:30;;;;;;;4.65;2.13;;;9.90;72.90;;;;;;5100159;28;20036;-87
2022/02/14 04:12:56;;;;;;;3.47;2.15;;;9.90;72.90;;;;;;5080977;28;20114;-86
2022/02/14 04:15:23;;;;;;;5.15;1.20;;;9.90;72.90;;;;;;5097619;28;20127;-87
2022/02/14 04:17:50;;;;;;;2.90;1.20;;;9.90;72.90;;;;;;5115594;28;20019;-94
2022/02/14 04:20:17;;;;;;;2.15;1.60;;;9.80;72.70;;;;;;5101411;28;20102;-95
2022/02/14 04:22:43;;;;;;;2.60;1.40;;;9.80;72.70;;;;;;5084691;28;20024;-94
2022/02/14 04:25:11;;;;;;;4.25;1.35;;;9.80;72.70;;;;;;5101610;28;20047;-94
2022/02/14 04:27:37;;;;;;;3.03;1.48;;;9.80;72.80;;;;;;5119679;28;20028;-94
2022/02/14 04:30:04;;;;;;;2.67;1.10;;;9.80;72.80;;;;;;5085695;28;20023;-93
2022/02/14 04:32:32;;;;;;;2.60;1.08;;;9.70;72.60;;;;;;5100820;28;20058;-94
2022/02/14 04:34:58;;;;;;;2.72;1.17;;;9.70;72.70;;;;;;5081233;28;20028;-85
2022/02/14 04:37:25;;;;;;;2.90;1.45;;;9.70;72.70;;;;;;5114494;28;20186;-85
2022/02/14 04:39:51;;;;;;;3.97;1.40;;;9.60;72.50;;;;;;5096035;28;20062;-86
2022/02/14 04:42:17;;;;;;;3.08;1.40;;;9.60;72.60;;;;;;5114582;28;20027;-86
2022/02/14 04:44:43;;;;;;;2.45;1.17;;;9.60;72.60;;;;;;5114469;28;20028;-86
2022/02/14 04:47:09;;;;;;;3.75;1.15;;;9.50;72.50;;;;;;5095900;28;20075;-87
2022/02/14 04:49:35;;;;;;;5.15;1.10;;;9.50;72.50;;;;;;5115735;28;20027;-88
2022/02/14 04:52:01;;;;;;;5.18;1.45;;;9.50;72.50;;;;;;5099410;28;20087;-89
2022/02/14 04:54:27;;;;;;;6.07;2.42;;;9.40;72.40;;;;;;5098099;28;20035;-86
2022/02/14 04:56:53;;;;;;;4.72;1.50;;;9.40;72.50;;;;;;5116161;28;20031;-89
2022/02/14 04:59:20;;;;;;;2.58;1.40;;;9.40;72.50;;;;;;5098817;28;20027;-93
2022/02/14 05:01:46;;;;;;;3.97;1.00;;;9.40;72.50;;;;;;5099312;28;20023;-92
2022/02/14 05:04:12;;;;;;;2.65;1.38;;;9.40;72.50;;;;;;5098179;28;20059;-86
2022/02/14 05:06:38;;;;;;;3.17;1.15;;;9.40;72.50;;;;;;5096221;28;20027;-84
2022/02/14 05:09:04;;;;;;;4.90;1.38;;;9.40;72.40;;;;;;5079065;28;20549;-84
2022/02/14 05:11:30;;;;;;;4.32;1.42;;;9.40;72.50;;;;;;5096146;28;20165;-84
2022/02/14 05:13:56;;;;;;;2.75;1.05;;;9.40;72.40;;;;;;5095722;28;20077;-90
2022/02/14 05:16:24;;;;;;;3.03;1.40;;;9.30;72.30;;;;;;5097639;28;20035;-93
2022/02/14 05:18:51;;;;;;;2.90;1.50;;;9.40;72.40;;;;;;5096975;28;20379;-90
2022/02/14 05:21:17;;;;;;;4.30;1.40;;;9.40;73.00;;;;;;5098980;28;20023;-92
2022/02/14 05:23:43;;;;;;;6.70;1.63;;;9.30;72.30;;;;;;5097499;28;20031;-89
2022/02/14 05:26:13;;;;;;;2.45;1.13;;;9.30;72.30;;;;;;5116152;28;20218;-93
2022/02/14 05:28:39;;;;;;;2.80;1.20;;;9.30;72.30;;;;;;5098957;28;20028;-93
2022/02/14 05:31:06;;;;;;;5.82;1.90;;;9.20;72.10;;;;;;5117894;28;20027;-94
2022/02/14 05:33:32;;;;;;;4.63;1.20;;;9.20;72.20;;;;;;5116501;28;20406;-90
2022/02/14 05:35:58;;;;;;;4.60;1.50;;;9.20;72.20;;;;;;5098258;28;20032;-91
2022/02/14 05:38:24;;;;;;;2.33;1.20;;;9.20;72.30;;;;;;5080580;28;20114;-92
2022/02/14 05:40:51;;;;;;;2.08;1.10;;;9.20;72.30;;;;;;5081760;28;20023;-93
2022/02/14 05:43:17;;;;;;;3.58;1.30;;;9.20;72.30;;;;;;5117316;28;20023;-92
2022/02/14 05:45:43;;;;;;;3.80;1.10;;;9.20;72.30;;;;;;5098483;28;20019;-88
2022/02/14 05:48:09;;;;;;;3.95;1.25;;;9.20;72.40;;;;;;5094142;28;20047;-93
2022/02/14 05:50:35;;;;;;;6.72;1.83;;;9.10;72.10;;;;;;5077245;28;20077;-94
2022/02/14 05:53:01;;;;;;;12.90;3.45;;;9.10;72.10;;;;;;5075267;28;20040;-89
2022/02/14 05:55:27;;;;;;;2.05;1.33;;;9.20;72.30;;;;;;5073272;28;20089;-90
2022/02/14 05:57:53;;;;;;;4.53;1.38;;;9.20;72.30;;;;;;5076761;28;20019;-91
2022/02/14 06:00:19;;;;;;;3.30;1.08;;;9.20;72.30;;;;;;5078271;28;20043;-93
2022/02/14 06:02:45;;;;;;;4.53;1.60;;;9.20;72.20;;;;;;5111661;28;20024;-85
2022/02/14 06:05:12;;;;;;;2.22;0.98;;;9.20;72.20;;;;;;5109791;28;20030;-85
2022/02/14 06:07:38;;;;;;;1.70;0.90;;;9.20;72.20;;;;;;5114300;28;20031;-90
2022/02/14 06:10:04;;;;;;;3.38;1.60;;;9.20;72.20;;;;;;5110128;28;20391;-90
2022/02/14 06:12:30;;;;;;;4.55;1.23;;;9.20;72.10;;;;;;5075307;28;20046;-88
2022/02/14 06:14:58;;;;;;;3.17;1.23;;;9.20;72.10;;;;;;5091857;28;20036;-85
2022/02/14 06:17:24;;;;;;;4.10;1.45;;;9.20;72.10;;;;;;5109838;28;20466;-89
2022/02/14 06:19:50;;;;;;;2.83;1.10;;;9.20;72.10;;;;;;5091497;28;20032;-85
2022/02/14 06:22:16;;;;;;;2.80;1.05;;;9.20;72.00;;;;;;5096039;28;20409;-95
2022/02/14 06:24:42;;;;;;;2.17;0.90;;;9.20;72.00;;;;;;5100723;28;20173;-89
2022/02/14 06:27:08;;;;;;;3.20;1.08;;;9.20;72.00;;;;;;5070674;28;20035;-87
2022/02/14 06:29:34;;;;;;;3.13;1.00;;;9.20;72.00;;;;;;5110486;28;20023;-89
2022/02/14 06:32:00;;;;;;;3.35;1.10;;;9.20;72.00;;;;;;5076259;28;20031;-88
2022/02/14 06:34:26;;;;;;;2.60;0.90;;;9.10;71.80;;;;;;5109764;28;20036;-89
2022/02/14 06:36:52;;;;;;;5.90;1.20;;;9.10;71.80;;;;;;5075411;28;20028;-89
2022/02/14 06:39:18;;;;;;;2.42;1.20;;;9.10;71.90;;;;;;5091394;28;20444;-86
2022/02/14 06:41:46;;;;;;;6.45;1.10;;;9.20;72.00;;;;;;5091898;28;20114;-83
2022/02/14 06:44:13;;;;;;;2.95;0.68;;;9.10;71.80;;;;;;5091125;28;20501;-79
2022/02/14 06:46:39;;;;;;;2.15;0.88;;;9.10;71.80;;;;;;5108490;28;20151;-79
2022/02/14 06:49:06;;;;;;;3.85;1.50;;;9.10;71.70;;;;;;5110563;28;20032;-78
2022/02/14 06:51:36;;;;;;;2.78;0.77;;;9.20;71.90;;;;;;5092846;28;20031;-79
2022/02/14 06:54:03;;;;;;;3.78;0.88;;;9.20;71.80;;;;;;5090196;28;20658;-80
2022/02/14 06:56:29;;;;;;;1.75;0.98;;;9.20;71.80;;;;;;5083858;28;20019;-80
2022/02/14 06:58:55;;;;;;;2.78;0.80;;;9.10;71.60;;;;;;5114267;28;20020;-84
2022/02/14 07:01:21;;;;;;;2.05;0.95;;;9.10;71.60;;;;;;5096759;28;20027;-92
2022/02/14 07:03:47;;;;;;;1.95;0.93;;;9.10;71.60;;;;;;5118787;28;20099;-90
2022/02/14 07:06:15;;;;;;;2.50;0.98;;;9.10;71.60;;;;;;5115556;28;20031;-90
2022/02/14 07:08:41;;;;;;;1.85;0.93;;;9.10;71.60;;;;;;5089547;28;20103;-92
2022/02/14 07:11:07;;;;;;;1.45;1.08;;;9.10;71.60;;;;;;5084070;28;20020;-92
2022/02/14 07:13:33;;;;;;;5.13;1.20;;;9.10;71.60;;;;;;5104952;28;20035;-82
2022/02/14 07:15:59;;;;;;;2.25;0.80;;;9.10;71.60;;;;;;5114504;28;20027;-80
2022/02/14 07:18:25;;;;;;;3.05;0.85;;;9.10;71.60;;;;;;5108699;28;20026;-79
2022/02/14 07:20:52;;;;;;;4.07;0.88;;;9.00;71.40;;;;;;5090925;28;20054;-78
2022/02/14 07:23:18;;;;;;;3.90;0.90;;;9.00;71.40;;;;;;5109214;28;20016;-78
2022/02/14 07:25:44;;;;;;;3.38;1.17;;;9.10;71.60;;;;;;5108543;28;20028;-78
2022/02/14 07:28:10;;;;;;;3.33;1.17;;;9.10;71.60;;;;;;5107888;28;20031;-80
2022/02/14 07:30:36;;;;;;;3.15;0.85;;;9.10;71.60;;;;;;5089690;28;20031;-77
2022/02/14 07:33:02;;;;;;;2.50;0.80;;;9.10;71.60;;;;;;5108219;28;20395;-78
2022/02/14 07:35:28;;;;;;;4.95;0.90;;;9.10;71.50;;;;;;5107304;28;20039;-78
2022/02/14 07:37:54;;;;;;;3.13;1.50;;;9.10;71.50;;;;;;5107603;28;20039;-77
2022/02/14 07:40:20;;;;;;;4.68;1.13;;;9.10;71.60;;;;;;5072178;28;20143;-78
2022/02/14 07:42:46;;;;;;;2.55;0.70;;;9.10;71.70;;;;;;5105671;28;20024;-77
2022/02/14 07:45:13;;;;;;;4.53;0.85;;;9.10;71.60;;;;;;5088688;28;20024;-78
2022/02/14 07:47:39;;;;;;;2.25;0.85;;;9.20;71.70;;;;;;5108700;28;20508;-77
2022/02/14 07:50:07;;;;;;;3.72;1.00;;;9.20;72.30;;;;;;5090791;28;20065;-77
2022/02/14 07:52:36;;;;;;;2.85;0.68;;;9.20;71.70;;;;;;5109790;28;20115;-77
2022/02/14 07:55:03;;;;;;;1.88;0.60;;;9.30;71.80;;;;;;5075273;28;20499;-77
2022/02/14 07:57:30;;;;;;;2.50;1.20;;;9.30;71.80;;;;;;5109756;28;20129;-77
2022/02/14 07:59:57;;;;;;;4.20;0.85;;;9.30;71.70;;;;;;5106839;28;20031;-77
2022/02/14 08:02:24;;;;;;;4.40;1.00;;;9.30;71.70;;;;;;5086946;28;20486;-78
2022/02/14 08:04:50;;;;;;;2.83;1.15;;;9.30;71.60;;;;;;5093627;28;20027;-77
2022/02/14 08:07:16;;;;;;;3.08;0.95;;;9.30;71.60;;;;;;5092798;28;20055;-80
2022/02/14 08:09:43;;;;;;;3.97;0.73;;;9.30;72.10;;;;;;5069421;28;20032;-80
2022/02/14 08:12:11;;;;;;;4.05;1.33;;;9.30;71.50;;;;;;5052878;28;20395;-80
2022/02/14 08:14:40;;;;;;;4.45;0.90;;;9.40;71.60;;;;;;5086912;28;20104;-81
2022/02/14 08:17:07;;;;;;;2.65;1.10;;;9.40;71.60;;;;;;5086951;28;20069;-79
2022/02/14 08:19:34;;;;;;;2.97;0.80;;;9.40;71.50;;;;;;5096728;28;20076;-80
2022/02/14 08:22:00;;;;;;;2.05;0.75;;;9.40;71.40;;;;;;5065985;28;20023;-80
2022/02/14 08:24:26;;;;;;;3.67;1.05;;;9.50;71.50;;;;;;5096886;28;20043;-80
2022/02/14 08:26:53;;;;;;;4.10;1.02;;;9.50;71.40;;;;;;5092006;28;20348;-82
2022/02/14 08:29:20;;;;;;;3.55;0.68;;;9.50;71.30;;;;;;5073656;28;20028;-82
2022/02/14 08:31:46;;;;;;;1.75;0.90;;;9.60;71.90;;;;;;5102000;28;20068;-78
2022/02/14 08:34:13;;;;;;;2.03;0.73;;;9.70;71.50;;;;;;5096472;28;20120;-78
2022/02/14 08:36:40;;;;;;;2.25;1.00;;;9.70;71.40;;;;;;5086118;28;20039;-79
2022/02/14 08:39:06;;;;;;;2.58;0.85;;;9.70;71.30;;;;;;5070129;28;20028;-79
2022/02/14 08:41:32;;;;;;;3.00;1.00;;;9.80;71.40;;;;;;5071981;28;20031;-78
2022/02/14 08:43:59;;;;;;;2.00;1.33;;;9.80;71.30;;;;;;5107060;28;20035;-78
2022/02/14 08:46:26;;;;;;;3.95;0.75;;;9.90;71.40;;;;;;5106623;28;20364;-79
2022/02/14 08:48:53;;;;;;;1.48;0.70;;;10.00;71.40;;;;;;5106798;28;20027;-78
2022/02/14 08:51:20;;;;;;;3.40;1.30;;;10.10;71.40;;;;;;5107098;28;20020;-79
2022/02/14 08:53:48;;;;;;;2.17;0.88;;;10.20;71.40;;;;;;5107652;28;20054;-79
2022/02/14 08:56:14;;;;;;;2.42;1.25;;;10.30;71.30;;;;;;5091181;28;20074;-79
2022/02/14 08:58:41;;;;;;;2.47;0.95;;;10.40;71.20;;;;;;5091118;28;20597;-79
2022/02/14 09:01:08;;;;;;;1.17;0.60;;;10.60;71.20;;;;;;5091968;28;20035;-78
2022/02/14 09:03:35;;;;;;;3.00;0.90;;;10.80;71.30;;;;;;5110358;28;20219;-79
2022/02/14 09:06:02;;;;;;;1.20;0.60;;;10.90;71.10;;;;;;5109960;28;20055;-78
2022/02/14 09:08:28;;;;;;;1.73;0.75;;;10.90;70.80;;;;;;5091354;28;20015;-78
2022/02/14 09:11:01;;;;;;;3.40;0.77;;;11.10;71.00;;;;;;5075078;28;20634;-83
2022/02/14 09:13:28;;;;;;;2.45;1.60;;;11.10;70.80;;;;;;5109793;28;20073;-86
2022/02/14 09:15:54;;;;;;;3.80;1.35;;;11.20;70.70;;;;;;5110307;28;20032;-85
2022/02/14 09:18:21;;;;;;;2.22;0.70;;;11.20;70.60;;;;;;5091057;28;20101;-84
2022/02/14 09:20:47;;;;;;;1.45;0.63;;;11.30;70.70;;;;;;5110439;28;20050;-86
2022/02/14 09:23:14;;;;;;;2.00;1.38;;;11.40;70.70;;;;;;5110382;28;20552;-93
2022/02/14 09:25:41;;;;;;;2.97;0.82;;;11.40;70.50;;;;;;5091791;28;20428;-79
2022/02/14 09:28:07;;;;;;;2.75;0.60;;;11.50;70.50;;;;;;5109518;28;20548;-78
2022/02/14 09:30:34;;;;;;;1.35;0.70;;;11.50;70.40;;;;;;5108667;28;20038;-76
2022/02/14 09:33:00;;;;;;;2.45;1.05;;;11.60;70.40;;;;;;5074213;28;20031;-77
2022/02/14 09:35:27;;;;;;;1.00;0.52;;;11.60;70.30;;;;;;5109064;28;20333;-78
2022/02/14 09:37:54;;;;;;;2.25;0.75;;;11.60;70.20;;;;;;5091188;28;20023;-78
2022/02/14 09:40:22;;;;;;;1.90;1.00;;;11.70;70.30;;;;;;5088720;28;20039;-78
2022/02/14 09:42:51;;;;;;;2.67;0.90;;;11.70;70.20;;;;;;5081457;28;20035;-80
2022/02/14 09:45:19;;;;;;;4.10;1.10;;;11.70;70.40;;;;;;5109751;28;20023;-78
2022/02/14 09:47:45;;;;;;;1.23;0.60;;;11.70;70.50;;;;;;5109220;28;20086;-79
2022/02/14 09:50:12;;;;;;;2.35;0.70;;;11.80;70.60;;;;;;5091253;28;20027;-86
2022/02/14 09:52:38;;;;;;;1.67;0.70;;;11.80;70.60;;;;;;5110034;28;20059;-86
2022/02/14 09:55:05;;;;;;;4.30;2.25;;;11.90;70.60;;;;;;5091217;28;20035;-86
2022/02/14 09:57:31;;;;;;;1.63;0.90;;;12.10;70.70;;;;;;5110140;28;20468;-84
2022/02/14 09:59:57;;;;;;;2.60;1.17;;;12.20;70.50;;;;;;5109768;28;20114;-84
2022/02/14 10:02:26;;;;;;;1.98;0.85;;;12.40;70.40;;;;;;5091810;28;20024;-86
2022/02/14 10:05:09;;;;;;;5.68;0.90;;;12.50;70.40;;;;;;5090394;28;20024;-81
2022/02/14 10:07:50;;;;;;;2.40;0.80;;;12.70;70.30;;;;;;5109442;28;20388;-82
2022/02/14 10:10:21;;;;;;;1.75;0.85;;;12.70;69.90;;;;;;5109652;28;20058;-80
2022/02/14 10:12:55;;;;;;;1.75;0.65;;;12.80;70.00;;;;;;5109836;28;20277;-82
2022/02/14 10:15:23;;;;;;;1.98;0.65;;;12.70;69.80;;;;;;5107876;28;20050;-80
2022/02/14 10:17:51;;;;;;;4.53;0.88;;;12.70;69.80;;;;;;5076336;28;20168;-85
2022/02/14 10:20:24;;;;;;;1.77;0.75;;;12.70;69.90;;;;;;5096828;28;20024;-84
2022/02/14 10:23:03;;;;;;;2.55;0.73;;;12.60;69.70;;;;;;5070824;28;20123;-83
2022/02/14 10:25:39;;;;;;;4.47;0.90;;;12.60;69.70;;;;;;5088647;28;20028;-82
2022/02/14 10:28:25;;;;;;;4.75;1.02;;;12.60;69.80;;;;;;5090579;28;20047;-82
2022/02/14 10:31:05;;;;;;;2.50;0.85;;;12.70;69.80;;;;;;5108687;28;20215;-82
2022/02/14 10:33:50;;;;;;;2.58;1.10;;;12.80;69.80;;;;;;5108530;28;20027;-81
2022/02/14 10:36:44;;;;;;;2.45;1.30;;;12.80;69.70;;;;;;5107900;28;20502;-83
2022/02/14 10:39:18;;;;;;;2.97;1.05;;;12.80;69.50;;;;;;5087520;28;20088;-81
2022/02/14 10:41:48;;;;;;;3.08;1.08;;;12.80;69.50;;;;;;5108487;28;20047;-81
2022/02/14 10:47:24;;;;;;;2.25;1.42;;;12.90;69.50;;;;;;5109477;28;20079;-82
2022/02/14 10:49:57;;;;;;;3.28;0.88;;;12.90;69.90;;;;;;5090102;28;20081;-82
2022/02/14 10:52:23;;;;;;;;;;;13.00;69.40;;;;;;5090078;28;20028;-81
2022/02/14 10:54:50;;;;;;;2.95;0.88;;;13.10;69.60;;;;;;5089674;28;20321;-81
2022/02/14 10:57:39;;;;;;;2.00;0.75;;;13.20;69.60;;;;;;5089853;28;20024;-82
2022/02/14 11:00:12;;;;;;;5.40;0.95;;;13.20;69.30;;;;;;5088966;28;20332;-81
2022/02/14 11:02:43;;;;;;;3.47;1.10;;;13.30;69.40;;;;;;5088502;28;20029;-79
2022/02/14 11:05:10;;;;;;;2.22;0.88;;;13.30;69.20;;;;;;5088169;28;20028;-81
2022/02/14 11:07:41;;;;;;;3.85;1.40;;;13.30;69.10;;;;;;5089268;28;20031;-84
2022/02/14 11:10:10;;;;;;;3.90;1.10;;;13.30;69.00;;;;;;5108169;28;20118;-79
2022/02/14 11:12:47;;;;;;;3.28;1.60;;;13.30;68.90;;;;;;5089894;28;20445;-79
2022/02/14 11:15:14;;;;;;;2.30;0.90;;;13.30;68.90;;;;;;5107385;28;20049;-80
2022/02/14 11:17:48;;;;;;;3.70;0.70;;;13.20;68.70;;;;;;5107464;28;20044;-80
2022/02/14 11:20:15;;;;;;;4.55;1.65;;;13.30;68.90;;;;;;5073184;28;20109;-80
2022/02/14 11:22:49;;;;;;;1.88;1.08;;;13.30;68.90;;;;;;5108028;28;20215;-81
2022/02/14 11:25:27;;;;;;;3.83;1.50;;;13.30;68.70;;;;;;5107815;28;20049;-80
2022/02/14 11:28:09;;;;;;;2.95;1.13;;;13.40;68.80;;;;;;5108076;28;20036;-80
2022/02/14 11:30:36;;;;;;;2.40;1.30;;;13.50;68.80;;;;;;5107494;28;20036;-82
2022/02/14 11:33:09;;;;;;;3.42;1.30;;;13.60;68.80;;;;;;5108125;28;20024;-79
2022/02/14 11:35:37;;;;;;;6.28;1.08;;;13.70;68.70;;;;;;5088926;28;20039;-83
2022/02/14 11:38:06;;;;;;;4.43;1.35;;;13.80;68.60;;;;;;5090214;28;20058;-82
2022/02/14 11:40:45;;;;;;;3.20;0.88;;;13.90;68.50;;;;;;5107413;28;20024;-82
2022/02/14 11:43:22;;;;;;;2.50;1.23;;;14.00;68.40;;;;;;5108298;28;20027;-82
2022/02/14 11:46:27;;;;;;;1.75;1.25;;;14.00;68.20;;;;;;5107360;28;20035;-82
2022/02/14 11:49:15;;;;;;;3.50;1.02;;;14.20;68.30;;;;;;5075153;28;20066;-85
2022/02/14 11:51:55;;;;;;;4.32;2.47;;;14.20;68.10;;;;;;5107350;28;20114;-81
2022/02/14 11:54:32;;;;;;;3.83;1.05;;;14.30;68.20;;;;;;5088868;28;20043;-81
2022/02/14 11:57:29;;;;;;;2.13;1.00;;;14.30;68.00;;;;;;5107832;28;20144;-79
2022/02/14 12:00:10;;;;;;;4.40;1.45;;;14.40;68.00;;;;;;5038513;28;20055;-80
2022/02/14 12:02:38;;;;;;;3.55;1.05;;;14.40;67.90;;;;;;5107620;28;20080;-77
2022/02/14 12:05:05;;;;;;;3.45;1.40;;;14.50;68.10;;;;;;5107505;28;20525;-77
2022/02/14 12:07:33;;;;;;;2.35;0.95;;;14.50;68.20;;;;;;5106995;28;20059;-79
2022/02/14 12:10:02;;;;;;;2.17;1.00;;;14.70;68.40;;;;;;5107340;28;20539;-78
2022/02/14 12:12:45;;;;;;;2.75;1.50;;;14.80;68.40;;;;;;5072783;28;20111;-79
2022/02/14 12:20:34;;;;;;;1.67;0.60;;;14.90;68.30;;;;;;5089004;28;20039;-78
2022/02/14 12:20:59;;;;;;;3.20;1.17;;;15.10;68.10;;;;;;5106949;28;20161;-79
2022/02/14 12:23:33;;;;;;;2.65;1.02;;;15.20;68.10;;;;;;5107059;28;20148;-79
2022/02/14 12:26:00;;;;;;;5.22;1.33;;;15.40;68.20;;;;;;5089181;28;20028;-79
2022/02/14 12:28:27;;;;;;;2.35;0.80;;;15.40;68.10;;;;;;5110682;28;20130;-78
2022/02/14 12:30:57;;;;;;;2.35;0.80;;;15.50;68.00;;;;;;5110651;28;20034;-79
2022/02/14 12:33:24;;;;;;;2.78;1.40;;;15.50;67.70;;;;;;5110887;28;20020;-77
2022/02/14 12:36:02;;;;;;;1.67;1.00;;;15.60;67.80;;;;;;5110462;28;20367;-78
2022/02/14 12:38:34;;;;;;;2.10;1.23;;;15.70;67.60;;;;;;5111230;28;20086;-81
2022/02/14 12:41:01;;;;;;;2.72;0.90;;;15.80;67.60;;;;;;5092531;28;20084;-81
2022/02/14 12:43:38;;;;;;;4.65;1.27;;;15.80;67.40;;;;;;5111625;28;20034;-77
2022/02/14 12:46:16;;;;;;;2.70;0.80;;;15.90;67.40;;;;;;5110431;28;20043;-79
2022/02/14 12:48:43;;;;;;;2.33;1.00;;;16.00;67.30;;;;;;5110039;28;20031;-81
2022/02/14 12:51:12;;;;;;;3.65;1.17;;;16.00;67.20;;;;;;5110402;28;20032;-81
2022/02/14 12:53:43;;;;;;;1.73;0.88;;;16.00;67.00;;;;;;5091069;28;21519;-82
2022/02/14 12:56:18;;;;;;;1.63;0.73;;;16.10;67.00;;;;;;5110842;28;20478;-80
2022/02/14 12:58:53;;;;;;;4.78;0.85;;;16.10;66.90;;;;;;5091901;28;20122;-80
2022/02/14 13:01:21;;;;;;;2.47;1.00;;;16.10;66.80;;;;;;5091788;28;20052;-80
2022/02/14 13:03:56;;;;;;;1.90;1.10;;;16.10;66.80;;;;;;5110815;28;20027;-82
2022/02/14 13:06:36;;;;;;;3.42;0.85;;;16.10;66.60;;;;;;5109952;28;20172;-78